sensor_id;sensor_type;location;lat;lon;timestamp;P1;durP1;ratioP1;P2;durP2;ratioP2
2542;SDS011;1116;51.502;7.414;2023-06-26T00:00:52;7.33;;;6.73;;
2542;SDS011;1116;51.502;7.414;2023-06-26T00:03:23;6.80;;;6.30;;
2542;SDS011;1116;51.502;7.414;2023-06-26T00:05:56;7.10;;;6.50;;
2542;SDS011;1116;51.502;7.414;2023-06-26T00:08:31;6.97;;;6.47;;
2542;SDS011;1116;51.502;7.414;2023-06-26T00:11:02;6.50;;;6.00;;
2542;SDS011;1116;51.502;7.414;2023-06-26T00:13:35;7.10;;;6.40;;
2542;SDS011;1116;51.502;7.414;2023-06-26T00:16:06;6.83;;;6.30;;
2542;SDS011;1116;51.502;7.414;2023-06-26T00:18:37;6.50;;;6.00;;
2542;SDS011;1116;51.502;7.414;2023-06-26T00:21:09;6.17;;;5.67;;
2542;SDS011;1116;51.502;7.414;2023-06-26T00:23:39;6.83;;;6.03;;
2542;SDS011;1116;51.502;7.414;2023-06-26T00:26:10;6.40;;;5.80;;
2542;SDS011;1116;51.502;7.414;2023-06-26T00:28:44;6.93;;;6.40;;
2542;SDS011;1116;51.502;7.414;2023-06-26T00:31:15;6.80;;;6.30;;
2542;SDS011;1116;51.502;7.414;2023-06-26T00:33:46;6.90;;;6.40;;
2542;SDS011;1116;51.502;7.414;2023-06-26T00:36:17;5.73;;;5.23;;
2542;SDS011;1116;51.502;7.414;2023-06-26T00:38:50;6.27;;;5.77;;
2542;SDS011;1116;51.502;7.414;2023-06-26T00:41:21;6.03;;;5.57;;
2542;SDS011;1116;51.502;7.414;2023-06-26T00:43:54;7.10;;;6.40;;
2542;SDS011;1116;51.502;7.414;2023-06-26T00:46:25;5.77;;;5.27;;
2542;SDS011;1116;51.502;7.414;2023-06-26T00:48:57;6.33;;;5.83;;
2542;SDS011;1116;51.502;7.414;2023-06-26T00:51:30;7.40;;;6.77;;
2542;SDS011;1116;51.502;7.414;2023-06-26T00:54:01;6.73;;;6.17;;
2542;SDS011;1116;51.502;7.414;2023-06-26T00:56:33;6.20;;;5.70;;
2542;SDS011;1116;51.502;7.414;2023-06-26T00:59:07;7.37;;;6.63;;
2542;SDS011;1116;51.502;7.414;2023-06-26T01:01:38;6.40;;;5.90;;
2542;SDS011;1116;51.502;7.414;2023-06-26T01:04:09;6.93;;;6.43;;
2542;SDS011;1116;51.502;7.414;2023-06-26T01:06:45;6.60;;;6.00;;
2542;SDS011;1116;51.502;7.414;2023-06-26T01:09:19;6.73;;;6.00;;
2542;SDS011;1116;51.502;7.414;2023-06-26T01:11:53;6.23;;;5.73;;
2542;SDS011;1116;51.502;7.414;2023-06-26T01:14:27;7.20;;;6.57;;
2542;SDS011;1116;51.502;7.414;2023-06-26T01:16:59;7.00;;;6.40;;
2542;SDS011;1116;51.502;7.414;2023-06-26T01:19:31;6.70;;;5.93;;
2542;SDS011;1116;51.502;7.414;2023-06-26T01:22:07;7.50;;;5.90;;
2542;SDS011;1116;51.502;7.414;2023-06-26T01:24:45;7.13;;;6.40;;
2542;SDS011;1116;51.502;7.414;2023-06-26T01:27:29;6.60;;;5.90;;
2542;SDS011;1116;51.502;7.414;2023-06-26T01:30:02;6.40;;;5.80;;
2542;SDS011;1116;51.502;7.414;2023-06-26T01:32:34;6.70;;;6.10;;
2542;SDS011;1116;51.502;7.414;2023-06-26T01:35:07;6.43;;;5.93;;
2542;SDS011;1116;51.502;7.414;2023-06-26T01:37:38;6.20;;;5.60;;
2542;SDS011;1116;51.502;7.414;2023-06-26T01:40:10;5.87;;;5.47;;
2542;SDS011;1116;51.502;7.414;2023-06-26T01:42:44;6.90;;;6.30;;
2542;SDS011;1116;51.502;7.414;2023-06-26T01:45:16;6.73;;;6.13;;
2542;SDS011;1116;51.502;7.414;2023-06-26T01:47:54;6.57;;;6.07;;
2542;SDS011;1116;51.502;7.414;2023-06-26T01:50:29;6.23;;;5.73;;
2542;SDS011;1116;51.502;7.414;2023-06-26T01:53:02;7.00;;;6.40;;
2542;SDS011;1116;51.502;7.414;2023-06-26T01:55:42;6.53;;;6.00;;
2542;SDS011;1116;51.502;7.414;2023-06-26T01:58:20;7.00;;;6.40;;
2542;SDS011;1116;51.502;7.414;2023-06-26T02:00:54;6.57;;;5.97;;
2542;SDS011;1116;51.502;7.414;2023-06-26T02:03:25;6.57;;;5.83;;
2542;SDS011;1116;51.502;7.414;2023-06-26T02:05:57;6.70;;;6.10;;
2542;SDS011;1116;51.502;7.414;2023-06-26T02:08:28;6.80;;;6.20;;
2542;SDS011;1116;51.502;7.414;2023-06-26T02:10:59;6.43;;;5.83;;
2542;SDS011;1116;51.502;7.414;2023-06-26T02:13:33;9.57;;;5.77;;
2542;SDS011;1116;51.502;7.414;2023-06-26T02:16:04;6.43;;;5.83;;
2542;SDS011;1116;51.502;7.414;2023-06-26T02:18:35;6.37;;;5.87;;
2542;SDS011;1116;51.502;7.414;2023-06-26T02:21:06;6.90;;;6.30;;
2542;SDS011;1116;51.502;7.414;2023-06-26T02:23:38;6.43;;;5.93;;
2542;SDS011;1116;51.502;7.414;2023-06-26T02:26:09;7.40;;;6.23;;
2542;SDS011;1116;51.502;7.414;2023-06-26T02:28:42;6.70;;;6.07;;
2542;SDS011;1116;51.502;7.414;2023-06-26T02:31:13;6.70;;;6.10;;
2542;SDS011;1116;51.502;7.414;2023-06-26T02:33:44;6.50;;;6.00;;
2542;SDS011;1116;51.502;7.414;2023-06-26T02:36:15;7.70;;;5.57;;
2542;SDS011;1116;51.502;7.414;2023-06-26T02:38:46;6.13;;;5.73;;
2542;SDS011;1116;51.502;7.414;2023-06-26T02:41:17;6.93;;;6.23;;
2542;SDS011;1116;51.502;7.414;2023-06-26T02:43:50;6.60;;;6.10;;
2542;SDS011;1116;51.502;7.414;2023-06-26T02:46:21;6.50;;;5.43;;
2542;SDS011;1116;51.502;7.414;2023-06-26T02:48:53;6.40;;;5.80;;
2542;SDS011;1116;51.502;7.414;2023-06-26T02:51:24;7.70;;;6.23;;
2542;SDS011;1116;51.502;7.414;2023-06-26T02:53:55;6.10;;;5.60;;
2542;SDS011;1116;51.502;7.414;2023-06-26T02:56:26;6.80;;;6.20;;
2542;SDS011;1116;51.502;7.414;2023-06-26T02:59:00;7.33;;;6.50;;
2542;SDS011;1116;51.502;7.414;2023-06-26T03:01:30;9.07;;;5.97;;
2542;SDS011;1116;51.502;7.414;2023-06-26T03:04:02;5.63;;;5.13;;
2542;SDS011;1116;51.502;7.414;2023-06-26T03:06:33;6.63;;;5.97;;
2542;SDS011;1116;51.502;7.414;2023-06-26T03:09:04;6.57;;;5.97;;
2542;SDS011;1116;51.502;7.414;2023-06-26T03:11:35;5.73;;;5.20;;
2542;SDS011;1116;51.502;7.414;2023-06-26T03:14:08;6.23;;;5.67;;
2542;SDS011;1116;51.502;7.414;2023-06-26T03:16:39;6.03;;;5.53;;
2542;SDS011;1116;51.502;7.414;2023-06-26T03:19:11;6.07;;;5.57;;
2542;SDS011;1116;51.502;7.414;2023-06-26T03:21:42;6.73;;;6.13;;
2542;SDS011;1116;51.502;7.414;2023-06-26T03:24:12;6.53;;;6.03;;
2542;SDS011;1116;51.502;7.414;2023-06-26T03:26:43;6.40;;;5.80;;
2542;SDS011;1116;51.502;7.414;2023-06-26T03:29:17;5.97;;;5.40;;
2542;SDS011;1116;51.502;7.414;2023-06-26T03:31:48;6.20;;;5.70;;
2542;SDS011;1116;51.502;7.414;2023-06-26T03:34:19;5.83;;;5.33;;
2542;SDS011;1116;51.502;7.414;2023-06-26T03:36:50;5.90;;;5.43;;
2542;SDS011;1116;51.502;7.414;2023-06-26T03:39:21;6.37;;;5.87;;
2542;SDS011;1116;51.502;7.414;2023-06-26T03:41:52;6.57;;;5.97;;
2542;SDS011;1116;51.502;7.414;2023-06-26T03:44:30;7.33;;;5.80;;
2542;SDS011;1116;51.502;7.414;2023-06-26T03:47:01;6.67;;;6.17;;
2542;SDS011;1116;51.502;7.414;2023-06-26T03:49:32;7.30;;;6.60;;
2542;SDS011;1116;51.502;7.414;2023-06-26T03:52:04;7.30;;;6.27;;
2542;SDS011;1116;51.502;7.414;2023-06-26T03:54:35;6.23;;;5.73;;
2542;SDS011;1116;51.502;7.414;2023-06-26T03:57:06;6.37;;;5.80;;
2542;SDS011;1116;51.502;7.414;2023-06-26T03:59:40;6.70;;;6.10;;
2542;SDS011;1116;51.502;7.414;2023-06-26T04:02:13;6.50;;;5.83;;
2542;SDS011;1116;51.502;7.414;2023-06-26T04:04:44;6.63;;;6.00;;
2542;SDS011;1116;51.502;7.414;2023-06-26T04:07:17;8.97;;;5.90;;
2542;SDS011;1116;51.502;7.414;2023-06-26T04:09:49;6.80;;;6.30;;
2542;SDS011;1116;51.502;7.414;2023-06-26T04:12:22;6.13;;;5.63;;
2542;SDS011;1116;51.502;7.414;2023-06-26T04:14:55;6.40;;;5.80;;
2542;SDS011;1116;51.502;7.414;2023-06-26T04:17:26;6.47;;;5.87;;
2542;SDS011;1116;51.502;7.414;2023-06-26T04:19:57;5.83;;;5.33;;
2542;SDS011;1116;51.502;7.414;2023-06-26T04:22:29;7.20;;;6.50;;
2542;SDS011;1116;51.502;7.414;2023-06-26T04:25:02;7.57;;;6.80;;
2542;SDS011;1116;51.502;7.414;2023-06-26T04:27:33;6.43;;;5.80;;
2542;SDS011;1116;51.502;7.414;2023-06-26T04:30:11;6.40;;;5.80;;
2542;SDS011;1116;51.502;7.414;2023-06-26T04:32:42;8.67;;;6.90;;
2542;SDS011;1116;51.502;7.414;2023-06-26T04:35:13;6.70;;;6.10;;
2542;SDS011;1116;51.502;7.414;2023-06-26T04:37:44;6.67;;;6.07;;
2542;SDS011;1116;51.502;7.414;2023-06-26T04:40:15;5.67;;;5.27;;
2542;SDS011;1116;51.502;7.414;2023-06-26T04:42:46;6.17;;;5.60;;
2542;SDS011;1116;51.502;7.414;2023-06-26T04:45:20;6.57;;;6.07;;
2542;SDS011;1116;51.502;7.414;2023-06-26T04:47:51;6.50;;;5.80;;
2542;SDS011;1116;51.502;7.414;2023-06-26T04:50:24;6.90;;;6.30;;
2542;SDS011;1116;51.502;7.414;2023-06-26T04:52:56;7.50;;;6.37;;
2542;SDS011;1116;51.502;7.414;2023-06-26T04:55:27;6.80;;;6.20;;
2542;SDS011;1116;51.502;7.414;2023-06-26T04:57:58;8.00;;;5.90;;
2542;SDS011;1116;51.502;7.414;2023-06-26T05:00:32;9.17;;;6.30;;
2542;SDS011;1116;51.502;7.414;2023-06-26T05:03:04;6.43;;;5.73;;
2542;SDS011;1116;51.502;7.414;2023-06-26T05:05:35;6.80;;;6.30;;
2542;SDS011;1116;51.502;7.414;2023-06-26T05:08:16;6.63;;;6.13;;
2542;SDS011;1116;51.502;7.414;2023-06-26T05:10:48;6.90;;;6.30;;
2542;SDS011;1116;51.502;7.414;2023-06-26T05:13:20;6.50;;;5.50;;
2542;SDS011;1116;51.502;7.414;2023-06-26T05:15:54;6.13;;;5.53;;
2542;SDS011;1116;51.502;7.414;2023-06-26T05:18:25;7.30;;;6.27;;
2542;SDS011;1116;51.502;7.414;2023-06-26T05:20:56;6.20;;;5.63;;
2542;SDS011;1116;51.502;7.414;2023-06-26T05:23:27;6.43;;;5.83;;
2542;SDS011;1116;51.502;7.414;2023-06-26T05:26:02;6.17;;;5.57;;
2542;SDS011;1116;51.502;7.414;2023-06-26T05:28:34;9.00;;;6.13;;
2542;SDS011;1116;51.502;7.414;2023-06-26T05:31:08;6.27;;;5.73;;
2542;SDS011;1116;51.502;7.414;2023-06-26T05:33:40;6.80;;;5.90;;
2542;SDS011;1116;51.502;7.414;2023-06-26T05:36:15;6.67;;;5.90;;
2542;SDS011;1116;51.502;7.414;2023-06-26T05:38:47;6.40;;;5.60;;
2542;SDS011;1116;51.502;7.414;2023-06-26T05:41:19;7.83;;;6.77;;
2542;SDS011;1116;51.502;7.414;2023-06-26T05:43:50;6.93;;;6.00;;
2542;SDS011;1116;51.502;7.414;2023-06-26T05:46:24;8.27;;;5.70;;
2542;SDS011;1116;51.502;7.414;2023-06-26T05:48:55;7.10;;;6.40;;
2542;SDS011;1116;51.502;7.414;2023-06-26T05:51:26;6.50;;;5.80;;
2542;SDS011;1116;51.502;7.414;2023-06-26T05:53:58;8.00;;;6.30;;
2542;SDS011;1116;51.502;7.414;2023-06-26T05:56:30;6.43;;;5.83;;
2542;SDS011;1116;51.502;7.414;2023-06-26T05:59:02;7.43;;;6.23;;
2542;SDS011;1116;51.502;7.414;2023-06-26T06:01:37;8.17;;;6.10;;
2542;SDS011;1116;51.502;7.414;2023-06-26T06:04:08;7.83;;;5.90;;
2542;SDS011;1116;51.502;7.414;2023-06-26T06:06:39;9.97;;;6.77;;
2542;SDS011;1116;51.502;7.414;2023-06-26T06:09:10;6.30;;;5.70;;
2542;SDS011;1116;51.502;7.414;2023-06-26T06:11:41;6.93;;;6.23;;
2542;SDS011;1116;51.502;7.414;2023-06-26T06:14:13;7.47;;;6.77;;
2542;SDS011;1116;51.502;7.414;2023-06-26T06:16:50;8.97;;;7.27;;
2542;SDS011;1116;51.502;7.414;2023-06-26T06:19:21;14.17;;;7.80;;
2542;SDS011;1116;51.502;7.414;2023-06-26T06:21:52;9.17;;;7.40;;
2542;SDS011;1116;51.502;7.414;2023-06-26T06:24:22;14.20;;;8.40;;
2542;SDS011;1116;51.502;7.414;2023-06-26T06:26:53;9.33;;;8.43;;
2542;SDS011;1116;51.502;7.414;2023-06-26T06:29:24;9.77;;;7.47;;
2542;SDS011;1116;51.502;7.414;2023-06-26T06:31:58;10.03;;;7.60;;
2542;SDS011;1116;51.502;7.414;2023-06-26T06:34:29;8.80;;;7.90;;
2542;SDS011;1116;51.502;7.414;2023-06-26T06:37:01;7.47;;;6.70;;
2542;SDS011;1116;51.502;7.414;2023-06-26T06:39:32;8.13;;;7.33;;
2542;SDS011;1116;51.502;7.414;2023-06-26T06:42:04;9.20;;;6.87;;
2542;SDS011;1116;51.502;7.414;2023-06-26T06:44:35;7.33;;;6.40;;
2542;SDS011;1116;51.502;7.414;2023-06-26T06:47:09;7.20;;;6.50;;
2542;SDS011;1116;51.502;7.414;2023-06-26T06:49:40;7.10;;;6.30;;
2542;SDS011;1116;51.502;7.414;2023-06-26T06:52:11;10.03;;;6.13;;
2542;SDS011;1116;51.502;7.414;2023-06-26T06:54:51;6.67;;;6.07;;
2542;SDS011;1116;51.502;7.414;2023-06-26T06:57:23;8.47;;;5.40;;
2542;SDS011;1116;51.502;7.414;2023-06-26T06:59:54;9.83;;;5.50;;
2542;SDS011;1116;51.502;7.414;2023-06-26T07:02:28;5.60;;;4.80;;
2542;SDS011;1116;51.502;7.414;2023-06-26T07:04:59;6.67;;;5.60;;
2542;SDS011;1116;51.502;7.414;2023-06-26T07:07:34;6.07;;;5.43;;
2542;SDS011;1116;51.502;7.414;2023-06-26T07:10:06;6.30;;;5.10;;
2542;SDS011;1116;51.502;7.414;2023-06-26T07:12:39;8.43;;;5.20;;
2542;SDS011;1116;51.502;7.414;2023-06-26T07:15:11;8.90;;;5.30;;
2542;SDS011;1116;51.502;7.414;2023-06-26T07:17:45;7.20;;;5.37;;
2542;SDS011;1116;51.502;7.414;2023-06-26T07:20:16;5.93;;;5.17;;
2542;SDS011;1116;51.502;7.414;2023-06-26T07:22:48;7.30;;;5.60;;
2542;SDS011;1116;51.502;7.414;2023-06-26T07:25:20;7.00;;;5.63;;
2542;SDS011;1116;51.502;7.414;2023-06-26T07:27:51;11.33;;;6.30;;
2542;SDS011;1116;51.502;7.414;2023-06-26T07:30:22;9.43;;;5.73;;
2542;SDS011;1116;51.502;7.414;2023-06-26T07:32:56;10.07;;;5.47;;
2542;SDS011;1116;51.502;7.414;2023-06-26T07:35:27;7.80;;;6.47;;
2542;SDS011;1116;51.502;7.414;2023-06-26T07:37:58;9.17;;;6.30;;
2542;SDS011;1116;51.502;7.414;2023-06-26T07:40:29;8.60;;;6.17;;
2542;SDS011;1116;51.502;7.414;2023-06-26T07:43:00;12.20;;;6.40;;
2542;SDS011;1116;51.502;7.414;2023-06-26T07:45:31;13.27;;;6.40;;
2542;SDS011;1116;51.502;7.414;2023-06-26T07:48:05;8.63;;;5.63;;
2542;SDS011;1116;51.502;7.414;2023-06-26T07:50:37;8.87;;;6.20;;
2542;SDS011;1116;51.502;7.414;2023-06-26T07:53:08;10.00;;;6.10;;
2542;SDS011;1116;51.502;7.414;2023-06-26T07:55:39;11.03;;;7.20;;
2542;SDS011;1116;51.502;7.414;2023-06-26T07:58:10;8.07;;;6.10;;
2542;SDS011;1116;51.502;7.414;2023-06-26T08:00:44;8.70;;;6.73;;
2542;SDS011;1116;51.502;7.414;2023-06-26T08:03:17;10.07;;;6.70;;
2542;SDS011;1116;51.502;7.414;2023-06-26T08:06:01;7.83;;;6.97;;
2542;SDS011;1116;51.502;7.414;2023-06-26T08:08:33;7.43;;;6.73;;
2542;SDS011;1116;51.502;7.414;2023-06-26T08:11:04;8.80;;;6.70;;
2542;SDS011;1116;51.502;7.414;2023-06-26T08:13:35;8.13;;;6.40;;
2542;SDS011;1116;51.502;7.414;2023-06-26T08:16:06;8.30;;;6.70;;
2542;SDS011;1116;51.502;7.414;2023-06-26T08:18:40;12.80;;;7.60;;
2542;SDS011;1116;51.502;7.414;2023-06-26T08:21:11;10.00;;;9.00;;
2542;SDS011;1116;51.502;7.414;2023-06-26T08:23:42;13.77;;;8.87;;
2542;SDS011;1116;51.502;7.414;2023-06-26T08:26:13;8.20;;;7.37;;
2542;SDS011;1116;51.502;7.414;2023-06-26T08:28:44;12.27;;;7.33;;
2542;SDS011;1116;51.502;7.414;2023-06-26T08:31:15;9.00;;;7.43;;
2542;SDS011;1116;51.502;7.414;2023-06-26T08:33:51;8.70;;;6.40;;
2542;SDS011;1116;51.502;7.414;2023-06-26T08:36:22;9.57;;;6.30;;
2542;SDS011;1116;51.502;7.414;2023-06-26T08:38:53;12.60;;;7.67;;
2542;SDS011;1116;51.502;7.414;2023-06-26T08:41:24;11.07;;;8.30;;
2542;SDS011;1116;51.502;7.414;2023-06-26T08:43:55;12.07;;;10.10;;
2542;SDS011;1116;51.502;7.414;2023-06-26T08:46:27;9.53;;;8.53;;
2542;SDS011;1116;51.502;7.414;2023-06-26T08:49:04;11.43;;;10.33;;
2542;SDS011;1116;51.502;7.414;2023-06-26T08:51:44;11.43;;;10.33;;
2542;SDS011;1116;51.502;7.414;2023-06-26T08:54:25;11.73;;;9.83;;
2542;SDS011;1116;51.502;7.414;2023-06-26T08:57:02;13.50;;;9.70;;
2542;SDS011;1116;51.502;7.414;2023-06-26T08:59:36;11.27;;;10.17;;
2542;SDS011;1116;51.502;7.414;2023-06-26T09:02:08;17.83;;;14.57;;
2542;SDS011;1116;51.502;7.414;2023-06-26T09:04:43;20.60;;;18.53;;
2542;SDS011;1116;51.502;7.414;2023-06-26T09:07:15;19.03;;;17.07;;
2542;SDS011;1116;51.502;7.414;2023-06-26T09:09:46;17.60;;;16.00;;
2542;SDS011;1116;51.502;7.414;2023-06-26T09:12:17;17.10;;;15.30;;
2542;SDS011;1116;51.502;7.414;2023-06-26T09:14:49;16.50;;;14.80;;
2542;SDS011;1116;51.502;7.414;2023-06-26T09:17:24;13.60;;;12.20;;
2542;SDS011;1116;51.502;7.414;2023-06-26T09:20:01;13.63;;;10.60;;
2542;SDS011;1116;51.502;7.414;2023-06-26T09:22:33;13.50;;;12.40;;
2542;SDS011;1116;51.502;7.414;2023-06-26T09:25:06;15.37;;;13.40;;
2542;SDS011;1116;51.502;7.414;2023-06-26T09:27:38;14.87;;;12.83;;
2542;SDS011;1116;51.502;7.414;2023-06-26T09:30:10;13.90;;;11.90;;
2542;SDS011;1116;51.502;7.414;2023-06-26T09:32:42;11.97;;;10.20;;
2542;SDS011;1116;51.502;7.414;2023-06-26T09:35:16;12.47;;;10.33;;
2542;SDS011;1116;51.502;7.414;2023-06-26T09:37:47;12.37;;;11.13;;
2542;SDS011;1116;51.502;7.414;2023-06-26T09:40:22;11.93;;;10.00;;
2542;SDS011;1116;51.502;7.414;2023-06-26T09:42:53;11.30;;;7.53;;
2542;SDS011;1116;51.502;7.414;2023-06-26T09:45:32;12.00;;;6.30;;
2542;SDS011;1116;51.502;7.414;2023-06-26T09:48:04;8.97;;;6.20;;
2542;SDS011;1116;51.502;7.414;2023-06-26T09:50:41;8.60;;;6.70;;
2542;SDS011;1116;51.502;7.414;2023-06-26T09:53:32;14.57;;;6.57;;
2542;SDS011;1116;51.502;7.414;2023-06-26T09:56:06;8.60;;;5.70;;
2542;SDS011;1116;51.502;7.414;2023-06-26T09:58:37;8.33;;;5.90;;
2542;SDS011;1116;51.502;7.414;2023-06-26T10:01:09;6.60;;;5.40;;
2542;SDS011;1116;51.502;7.414;2023-06-26T10:03:40;9.87;;;5.50;;
2542;SDS011;1116;51.502;7.414;2023-06-26T10:06:14;8.37;;;5.00;;
2542;SDS011;1116;51.502;7.414;2023-06-26T10:08:46;7.00;;;5.00;;
2542;SDS011;1116;51.502;7.414;2023-06-26T10:11:19;8.03;;;5.10;;
2542;SDS011;1116;51.502;7.414;2023-06-26T10:13:53;6.63;;;4.70;;
2542;SDS011;1116;51.502;7.414;2023-06-26T10:16:43;7.83;;;5.30;;
2542;SDS011;1116;51.502;7.414;2023-06-26T10:19:15;9.77;;;4.80;;
2542;SDS011;1116;51.502;7.414;2023-06-26T10:21:55;6.63;;;5.00;;
2542;SDS011;1116;51.502;7.414;2023-06-26T10:24:28;7.57;;;5.27;;
2542;SDS011;1116;51.502;7.414;2023-06-26T10:27:04;7.90;;;4.70;;
2542;SDS011;1116;51.502;7.414;2023-06-26T10:29:41;7.97;;;4.70;;
2542;SDS011;1116;51.502;7.414;2023-06-26T10:32:14;6.23;;;4.23;;
2542;SDS011;1116;51.502;7.414;2023-06-26T10:34:47;7.90;;;4.87;;
2542;SDS011;1116;51.502;7.414;2023-06-26T10:37:21;7.00;;;4.50;;
2542;SDS011;1116;51.502;7.414;2023-06-26T10:40:11;8.73;;;4.70;;
2542;SDS011;1116;51.502;7.414;2023-06-26T10:42:42;6.90;;;4.37;;
2542;SDS011;1116;51.502;7.414;2023-06-26T10:45:15;7.90;;;5.37;;
2542;SDS011;1116;51.502;7.414;2023-06-26T10:47:47;9.10;;;5.13;;
2542;SDS011;1116;51.502;7.414;2023-06-26T10:50:23;9.37;;;4.73;;
2542;SDS011;1116;51.502;7.414;2023-06-26T10:55:48;4.73;;;3.60;;
2542;SDS011;1116;51.502;7.414;2023-06-26T10:58:26;9.67;;;3.30;;
2542;SDS011;1116;51.502;7.414;2023-06-26T11:01:14;4.97;;;3.97;;
2542;SDS011;1116;51.502;7.414;2023-06-26T11:03:48;9.93;;;4.30;;
2542;SDS011;1116;51.502;7.414;2023-06-26T11:06:32;5.73;;;3.20;;
2542;SDS011;1116;51.502;7.414;2023-06-26T11:09:10;7.03;;;3.53;;
2542;SDS011;1116;51.502;7.414;2023-06-26T11:14:37;7.43;;;3.80;;
2542;SDS011;1116;51.502;7.414;2023-06-26T11:17:08;5.10;;;3.40;;
2542;SDS011;1116;51.502;7.414;2023-06-26T11:19:42;5.70;;;3.70;;
2542;SDS011;1116;51.502;7.414;2023-06-26T11:22:13;9.43;;;3.33;;
2542;SDS011;1116;51.502;7.414;2023-06-26T11:24:49;5.50;;;3.60;;
2542;SDS011;1116;51.502;7.414;2023-06-26T11:27:35;5.73;;;3.47;;
2542;SDS011;1116;51.502;7.414;2023-06-26T11:30:09;9.80;;;3.70;;
2542;SDS011;1116;51.502;7.414;2023-06-26T11:32:41;5.80;;;3.40;;
2542;SDS011;1116;51.502;7.414;2023-06-26T11:35:12;5.20;;;3.53;;
2542;SDS011;1116;51.502;7.414;2023-06-26T11:37:43;5.43;;;3.50;;
2542;SDS011;1116;51.502;7.414;2023-06-26T11:40:21;6.93;;;4.03;;
2542;SDS011;1116;51.502;7.414;2023-06-26T11:42:54;4.83;;;3.60;;
2542;SDS011;1116;51.502;7.414;2023-06-26T11:45:25;4.80;;;3.23;;
2542;SDS011;1116;51.502;7.414;2023-06-26T11:48:00;5.97;;;3.70;;
2542;SDS011;1116;51.502;7.414;2023-06-26T11:50:31;6.73;;;3.40;;
2542;SDS011;1116;51.502;7.414;2023-06-26T11:53:07;4.00;;;3.20;;
2542;SDS011;1116;51.502;7.414;2023-06-26T11:55:44;5.40;;;3.30;;
2542;SDS011;1116;51.502;7.414;2023-06-26T11:58:15;4.93;;;3.13;;
2542;SDS011;1116;51.502;7.414;2023-06-26T12:00:47;6.30;;;3.40;;
2542;SDS011;1116;51.502;7.414;2023-06-26T12:03:18;5.77;;;3.20;;
2542;SDS011;1116;51.502;7.414;2023-06-26T12:05:50;3.80;;;2.57;;
2542;SDS011;1116;51.502;7.414;2023-06-26T12:08:21;4.47;;;2.70;;
2542;SDS011;1116;51.502;7.414;2023-06-26T12:10:55;2.97;;;2.30;;
2542;SDS011;1116;51.502;7.414;2023-06-26T12:13:26;4.83;;;2.50;;
2542;SDS011;1116;51.502;7.414;2023-06-26T12:16:00;5.83;;;2.47;;
2542;SDS011;1116;51.502;7.414;2023-06-26T12:18:33;6.00;;;2.80;;
2542;SDS011;1116;51.502;7.414;2023-06-26T12:21:05;4.00;;;2.00;;
2542;SDS011;1116;51.502;7.414;2023-06-26T12:23:38;2.93;;;2.37;;
2542;SDS011;1116;51.502;7.414;2023-06-26T12:26:19;2.67;;;2.20;;
2542;SDS011;1116;51.502;7.414;2023-06-26T12:28:51;2.53;;;2.33;;
2542;SDS011;1116;51.502;7.414;2023-06-26T12:31:22;2.57;;;1.77;;
2542;SDS011;1116;51.502;7.414;2023-06-26T12:33:53;3.60;;;2.27;;
2542;SDS011;1116;51.502;7.414;2023-06-26T12:36:24;2.90;;;2.10;;
2542;SDS011;1116;51.502;7.414;2023-06-26T12:38:55;3.90;;;2.10;;
2542;SDS011;1116;51.502;7.414;2023-06-26T12:41:29;5.20;;;2.03;;
2542;SDS011;1116;51.502;7.414;2023-06-26T12:44:00;2.87;;;2.40;;
2542;SDS011;1116;51.502;7.414;2023-06-26T12:46:34;6.07;;;1.73;;
2542;SDS011;1116;51.502;7.414;2023-06-26T12:49:05;3.50;;;1.73;;
2542;SDS011;1116;51.502;7.414;2023-06-26T12:51:56;2.60;;;1.87;;
2542;SDS011;1116;51.502;7.414;2023-06-26T12:54:27;2.40;;;1.83;;
2542;SDS011;1116;51.502;7.414;2023-06-26T12:57:02;3.30;;;1.90;;
2542;SDS011;1116;51.502;7.414;2023-06-26T12:59:34;2.57;;;1.97;;
2542;SDS011;1116;51.502;7.414;2023-06-26T13:02:06;7.53;;;1.90;;
2542;SDS011;1116;51.502;7.414;2023-06-26T13:04:39;2.10;;;1.30;;
2542;SDS011;1116;51.502;7.414;2023-06-26T13:07:12;2.90;;;1.50;;
2542;SDS011;1116;51.502;7.414;2023-06-26T13:09:43;3.33;;;1.30;;
2542;SDS011;1116;51.502;7.414;2023-06-26T13:12:18;2.43;;;1.40;;
2542;SDS011;1116;51.502;7.414;2023-06-26T13:14:49;2.00;;;1.47;;
2542;SDS011;1116;51.502;7.414;2023-06-26T13:17:20;1.40;;;1.30;;
2542;SDS011;1116;51.502;7.414;2023-06-26T13:19:51;1.73;;;1.20;;
2542;SDS011;1116;51.502;7.414;2023-06-26T13:22:22;3.50;;;1.53;;
2542;SDS011;1116;51.502;7.414;2023-06-26T13:24:53;2.63;;;1.40;;
2542;SDS011;1116;51.502;7.414;2023-06-26T13:27:27;2.93;;;1.53;;
2542;SDS011;1116;51.502;7.414;2023-06-26T13:29:58;5.23;;;1.60;;
2542;SDS011;1116;51.502;7.414;2023-06-26T13:32:29;2.37;;;1.40;;
2542;SDS011;1116;51.502;7.414;2023-06-26T13:35:00;2.27;;;1.10;;
2542;SDS011;1116;51.502;7.414;2023-06-26T13:37:32;5.43;;;1.50;;
2542;SDS011;1116;51.502;7.414;2023-06-26T13:40:04;4.67;;;1.27;;
2542;SDS011;1116;51.502;7.414;2023-06-26T13:42:40;1.83;;;1.30;;
2542;SDS011;1116;51.502;7.414;2023-06-26T13:45:12;4.67;;;1.30;;
2542;SDS011;1116;51.502;7.414;2023-06-26T13:47:57;1.93;;;1.40;;
2542;SDS011;1116;51.502;7.414;2023-06-26T13:50:28;5.20;;;1.50;;
2542;SDS011;1116;51.502;7.414;2023-06-26T13:53:19;8.70;;;1.63;;
2542;SDS011;1116;51.502;7.414;2023-06-26T13:55:50;3.43;;;1.23;;
2542;SDS011;1116;51.502;7.414;2023-06-26T13:58:24;2.00;;;1.33;;
2542;SDS011;1116;51.502;7.414;2023-06-26T14:00:57;3.47;;;1.63;;
2542;SDS011;1116;51.502;7.414;2023-06-26T14:03:28;4.57;;;1.50;;
2542;SDS011;1116;51.502;7.414;2023-06-26T14:05:59;2.10;;;1.40;;
2542;SDS011;1116;51.502;7.414;2023-06-26T14:08:30;4.13;;;1.47;;
2542;SDS011;1116;51.502;7.414;2023-06-26T14:11:01;3.47;;;1.50;;
2542;SDS011;1116;51.502;7.414;2023-06-26T14:13:35;2.20;;;1.43;;
2542;SDS011;1116;51.502;7.414;2023-06-26T14:16:06;8.10;;;1.80;;
2542;SDS011;1116;51.502;7.414;2023-06-26T14:18:37;2.77;;;1.40;;
2542;SDS011;1116;51.502;7.414;2023-06-26T14:21:08;2.87;;;1.50;;
2542;SDS011;1116;51.502;7.414;2023-06-26T14:23:39;4.63;;;1.40;;
2542;SDS011;1116;51.502;7.414;2023-06-26T14:26:10;3.80;;;1.80;;
2542;SDS011;1116;51.502;7.414;2023-06-26T14:28:44;40.20;;;6.43;;
2542;SDS011;1116;51.502;7.414;2023-06-26T14:31:15;6.87;;;1.57;;
2542;SDS011;1116;51.502;7.414;2023-06-26T14:33:46;3.77;;;1.37;;
2542;SDS011;1116;51.502;7.414;2023-06-26T14:36:17;2.50;;;1.33;;
2542;SDS011;1116;51.502;7.414;2023-06-26T14:38:48;4.67;;;1.40;;
2542;SDS011;1116;51.502;7.414;2023-06-26T14:41:20;2.73;;;1.37;;
2542;SDS011;1116;51.502;7.414;2023-06-26T14:43:54;2.20;;;1.20;;
2542;SDS011;1116;51.502;7.414;2023-06-26T14:46:25;2.93;;;1.57;;
2542;SDS011;1116;51.502;7.414;2023-06-26T14:48:57;2.23;;;1.50;;
2542;SDS011;1116;51.502;7.414;2023-06-26T14:51:28;2.00;;;1.10;;
2542;SDS011;1116;51.502;7.414;2023-06-26T14:53:59;2.57;;;1.40;;
2542;SDS011;1116;51.502;7.414;2023-06-26T14:56:30;1.70;;;1.20;;
2542;SDS011;1116;51.502;7.414;2023-06-26T14:59:04;2.43;;;1.27;;
2542;SDS011;1116;51.502;7.414;2023-06-26T15:01:34;6.30;;;1.63;;
2542;SDS011;1116;51.502;7.414;2023-06-26T15:04:06;4.07;;;1.47;;
2542;SDS011;1116;51.502;7.414;2023-06-26T15:06:38;1.77;;;1.50;;
2542;SDS011;1116;51.502;7.414;2023-06-26T15:09:09;5.80;;;1.40;;
2542;SDS011;1116;51.502;7.414;2023-06-26T15:11:39;2.93;;;1.50;;
2542;SDS011;1116;51.502;7.414;2023-06-26T15:14:13;4.23;;;1.67;;
2542;SDS011;1116;51.502;7.414;2023-06-26T15:16:44;4.37;;;1.67;;
2542;SDS011;1116;51.502;7.414;2023-06-26T15:19:15;4.23;;;1.73;;
2542;SDS011;1116;51.502;7.414;2023-06-26T15:21:46;3.87;;;1.30;;
2542;SDS011;1116;51.502;7.414;2023-06-26T15:24:20;3.43;;;1.80;;
2542;SDS011;1116;51.502;7.414;2023-06-26T15:26:51;4.50;;;1.70;;
2542;SDS011;1116;51.502;7.414;2023-06-26T15:29:25;2.10;;;1.40;;
2542;SDS011;1116;51.502;7.414;2023-06-26T15:31:56;5.13;;;1.67;;
2542;SDS011;1116;51.502;7.414;2023-06-26T15:34:27;4.70;;;1.50;;
2542;SDS011;1116;51.502;7.414;2023-06-26T15:36:58;3.67;;;1.50;;
2542;SDS011;1116;51.502;7.414;2023-06-26T15:39:29;4.00;;;1.60;;
2542;SDS011;1116;51.502;7.414;2023-06-26T15:42:00;2.07;;;1.50;;
2542;SDS011;1116;51.502;7.414;2023-06-26T15:44:34;2.67;;;1.80;;
2542;SDS011;1116;51.502;7.414;2023-06-26T15:47:05;3.83;;;1.60;;
2542;SDS011;1116;51.502;7.414;2023-06-26T15:49:36;3.33;;;1.47;;
2542;SDS011;1116;51.502;7.414;2023-06-26T15:52:07;3.70;;;1.70;;